Time;durP1;ratioP1;P1;durP2;ratioP2;P2;SDS_P1;SDS_P2;PMS_P1;PMS_P2;Temp;Humidity;BMP_temperature;BMP_pressure;BME280_temperature;BME280_humidity;BME280_pressure;Samples;Min_cycle;Max_cycle;Signal;HPM_P1;HPM_P2
2022/08/21 00:01:46;;;;;;;12.27;2.63;;;16.10;99.90;;;;;;4926122;29;20035;-92
2022/08/21 00:04:13;;;;;;;15.15;2.58;;;16.10;99.90;;;;;;4925782;29;20164;-92
2022/08/21 00:06:39;;;;;;;14.45;2.08;;;16.10;99.90;;;;;;4909661;29;20458;-93
2022/08/21 00:09:06;;;;;;;13.60;2.38;;;16.10;99.90;;;;;;4925798;29;20115;-92
2022/08/21 00:11:36;;;;;;;10.45;2.20;;;16.10;99.90;;;;;;4925469;29;20031;-92
2022/08/21 00:14:05;;;;;;;10.83;2.47;;;16.10;99.90;;;;;;4910275;29;20042;-93
2022/08/21 00:16:31;;;;;;;13.57;2.25;;;16.10;99.90;;;;;;4927263;29;20303;-92
2022/08/21 00:18:57;;;;;;;12.15;2.05;;;16.10;99.90;;;;;;4937877;29;20031;-87
2022/08/21 00:21:23;;;;;;;8.85;2.00;;;16.10;99.90;;;;;;4943571;29;20082;-85
2022/08/21 00:23:48;;;;;;;8.63;1.92;;;16.00;99.90;;;;;;4943046;29;20020;-92
2022/08/21 00:26:14;;;;;;;19.33;2.60;;;16.00;99.90;;;;;;4942472;29;20017;-91
2022/08/21 00:28:40;;;;;;;14.80;2.30;;;15.90;99.90;;;;;;4941613;29;20050;-94
2022/08/21 00:31:06;;;;;;;10.65;2.10;;;15.90;99.90;;;;;;4925369;29;20016;-94
2022/08/21 00:33:32;;;;;;;9.90;2.25;;;15.90;99.90;;;;;;4941267;29;20047;-90
2022/08/21 00:35:57;;;;;;;12.88;2.15;;;15.90;99.90;;;;;;4937148;29;20048;-94
2022/08/21 00:38:23;;;;;;;13.07;3.03;;;15.90;99.90;;;;;;4916832;29;20043;-91
2022/08/21 00:40:53;;;;;;;12.40;2.40;;;15.90;99.90;;;;;;4924952;29;20099;-92
2022/08/21 00:43:28;;;;;;;12.77;2.40;;;15.90;99.90;;;;;;4925213;29;20024;-90
2022/08/21 00:45:55;;;;;;;11.25;2.42;;;15.90;99.90;;;;;;4926057;29;20032;-92
2022/08/21 00:48:22;;;;;;;11.90;2.20;;;15.90;99.90;;;;;;4924764;29;20048;-91
2022/08/21 00:51:09;;;;;;;10.60;2.45;;;15.90;99.90;;;;;;4908966;29;20028;-93
2022/08/21 00:53:39;;;;;;;12.45;2.55;;;15.90;99.90;;;;;;4924394;29;20051;-94
2022/08/21 00:56:07;;;;;;;14.27;2.70;;;15.90;99.90;;;;;;4924443;29;20024;-93
2022/08/21 00:58:35;;;;;;;11.02;2.00;;;15.90;99.90;;;;;;4924580;29;20067;-93
2022/08/21 01:01:04;;;;;;;16.05;3.13;;;15.90;99.90;;;;;;4924616;29;20115;-92
2022/08/21 01:03:30;;;;;;;13.70;2.22;;;15.90;99.90;;;;;;4907815;29;20115;-94
2022/08/21 01:05:55;;;;;;;13.40;2.58;;;15.90;99.90;;;;;;4923592;29;20066;-92
2022/08/21 01:08:22;;;;;;;14.13;2.67;;;16.00;99.90;;;;;;4923937;29;20035;-92
2022/08/21 01:10:49;;;;;;;15.77;2.50;;;15.90;99.90;;;;;;4923928;29;20020;-93
2022/08/21 01:13:18;;;;;;;11.25;2.50;;;15.90;99.90;;;;;;4923967;29;20052;-93
2022/08/21 01:15:47;;;;;;;13.77;2.88;;;15.90;99.90;;;;;;4910067;29;20024;-93
2022/08/21 01:18:14;;;;;;;14.93;2.30;;;15.90;99.90;;;;;;4926915;29;20058;-93
2022/08/21 01:20:46;;;;;;;15.35;2.50;;;15.90;99.90;;;;;;4925658;29;20035;-93
2022/08/21 01:23:12;;;;;;;10.88;2.85;;;15.90;99.90;;;;;;4933261;29;20089;-89
2022/08/21 01:25:38;;;;;;;12.80;2.25;;;15.90;99.90;;;;;;4939724;29;20048;-90
2022/08/21 01:28:13;;;;;;;9.93;2.40;;;15.90;99.90;;;;;;4925199;29;20068;-92
2022/08/21 01:30:40;;;;;;;16.83;2.80;;;15.90;99.90;;;;;;4923719;29;20089;-94
2022/08/21 01:33:06;;;;;;;10.10;2.63;;;15.90;99.90;;;;;;4923597;29;20626;-93
2022/08/21 01:35:31;;;;;;;11.07;2.97;;;15.90;99.90;;;;;;4924103;29;20027;-94
2022/08/21 01:37:58;;;;;;;13.07;2.47;;;15.90;99.90;;;;;;4924692;29;20032;-93
2022/08/21 01:40:23;;;;;;;9.10;3.10;;;15.90;99.90;;;;;;4923531;29;20039;-94
2022/08/21 01:42:50;;;;;;;16.35;2.38;;;15.90;99.90;;;;;;4923663;29;20425;-92
2022/08/21 01:45:16;;;;;;;13.40;2.25;;;16.00;99.90;;;;;;4922431;29;20032;-94
2022/08/21 01:47:44;;;;;;;13.20;2.42;;;16.00;99.90;;;;;;4907542;29;20055;-92
2022/08/21 01:50:16;;;;;;;18.10;2.40;;;16.00;99.90;;;;;;4919496;29;20498;-93
2022/08/21 01:52:42;;;;;;;13.00;2.15;;;15.90;99.90;;;;;;4923489;29;20032;-93
2022/08/21 01:55:10;;;;;;;9.70;2.05;;;15.90;99.90;;;;;;4924160;29;20032;-92
2022/08/21 01:57:35;;;;;;;11.05;2.65;;;15.90;99.90;;;;;;4935101;29;20020;-90
2022/08/21 02:00:08;;;;;;;11.32;2.47;;;15.90;99.90;;;;;;4913056;29;20048;-95
2022/08/21 02:02:34;;;;;;;13.40;2.83;;;15.80;99.90;;;;;;4923075;29;20025;-94
2022/08/21 02:05:00;;;;;;;14.13;2.45;;;15.80;99.90;;;;;;4907732;29;20561;-94
2022/08/21 02:07:26;;;;;;;10.20;3.08;;;15.80;99.90;;;;;;4923963;29;20024;-94
2022/08/21 02:09:51;;;;;;;12.57;2.70;;;15.80;99.90;;;;;;4922813;29;20410;-94
2022/08/21 02:12:17;;;;;;;18.63;2.60;;;15.80;99.90;;;;;;4923625;29;20117;-93
2022/08/21 02:14:43;;;;;;;11.57;2.50;;;15.80;99.90;;;;;;4923231;29;20064;-94
2022/08/21 02:17:08;;;;;;;14.73;2.67;;;15.80;99.90;;;;;;4923381;29;20024;-94
2022/08/21 02:19:34;;;;;;;11.05;2.70;;;15.80;99.90;;;;;;4923407;29;20438;-94
2022/08/21 02:22:00;;;;;;;13.82;2.30;;;15.80;99.90;;;;;;4907462;29;20546;-94
2022/08/21 02:24:26;;;;;;;14.48;2.45;;;15.80;99.90;;;;;;4925931;29;20028;-94
2022/08/21 02:26:51;;;;;;;10.73;2.70;;;15.80;99.90;;;;;;4932375;29;20079;-92
2022/08/21 02:29:17;;;;;;;17.35;2.75;;;15.80;99.90;;;;;;4930349;29;20064;-95
2022/08/21 02:31:43;;;;;;;10.02;2.55;;;15.80;99.90;;;;;;4927796;29;20067;-95
2022/08/21 02:34:08;;;;;;;15.82;2.88;;;15.70;99.90;;;;;;4925585;29;20047;-94
2022/08/21 02:36:34;;;;;;;14.50;2.67;;;15.70;99.90;;;;;;4907104;29;20032;-93
2022/08/21 02:39:00;;;;;;;11.48;2.72;;;15.70;99.90;;;;;;4923286;29;20357;-94
2022/08/21 02:41:26;;;;;;;7.15;2.25;;;15.70;99.90;;;;;;4923232;29;20055;-94
2022/08/21 02:43:51;;;;;;;15.23;2.70;;;15.60;99.90;;;;;;4923185;29;20054;-94
2022/08/21 02:46:20;;;;;;;12.20;3.08;;;15.60;99.90;;;;;;4923133;29;20156;-94
2022/08/21 02:48:46;;;;;;;16.77;3.08;;;15.60;99.90;;;;;;4923279;29;20120;-93
2022/08/21 02:51:17;;;;;;;9.07;2.20;;;15.60;99.90;;;;;;4922073;29;20052;-95
2022/08/21 02:53:43;;;;;;;;;;;15.60;99.90;;;;;;4907341;29;20032;-94
2022/08/21 02:56:12;;;;;;;9.60;2.83;;;15.60;99.90;;;;;;4922338;29;20354;-92
2022/08/21 02:58:47;;;;;;;12.23;2.53;;;15.60;99.90;;;;;;4924684;29;20039;-94
2022/08/21 03:01:13;;;;;;;10.02;2.30;;;15.60;99.90;;;;;;4925816;29;20028;-92
2022/08/21 03:03:41;;;;;;;11.90;3.00;;;15.60;99.90;;;;;;4927141;29;20064;-91
2022/08/21 03:06:09;;;;;;;15.68;3.35;;;15.60;99.90;;;;;;4926077;29;20484;-92
2022/08/21 03:08:36;;;;;;;19.45;2.22;;;15.60;99.90;;;;;;4925805;29;20085;-94
2022/08/21 03:11:02;;;;;;;10.88;2.58;;;15.50;99.90;;;;;;4910465;29;20024;-93
2022/08/21 03:13:28;;;;;;;14.40;4.03;;;15.50;99.90;;;;;;4910056;29;20115;-93
2022/08/21 03:15:54;;;;;;;13.63;3.05;;;15.50;99.90;;;;;;4910287;29;20115;-94
2022/08/21 03:18:20;;;;;;;18.73;3.00;;;15.50;99.90;;;;;;4910125;29;20040;-93
2022/08/21 03:20:46;;;;;;;12.07;2.70;;;15.40;99.90;;;;;;4909782;29;20078;-92
2022/08/21 03:23:14;;;;;;;14.68;2.60;;;15.40;99.90;;;;;;4910412;29;20055;-95
2022/08/21 03:25:40;;;;;;;12.48;2.30;;;15.40;99.90;;;;;;4909887;29;20032;-94
2022/08/21 03:28:09;;;;;;;14.75;2.95;;;15.40;99.90;;;;;;4926358;29;20044;-94
2022/08/21 03:30:35;;;;;;;13.98;3.28;;;15.30;99.90;;;;;;4909526;29;20032;-92
2022/08/21 03:33:01;;;;;;;17.45;2.92;;;15.30;99.90;;;;;;4909232;29;20028;-93
2022/08/21 03:35:28;;;;;;;14.05;2.45;;;15.30;99.90;;;;;;4909965;29;20046;-93
2022/08/21 03:37:54;;;;;;;16.92;4.18;;;15.40;99.90;;;;;;4909371;29;20030;-93
2022/08/21 03:40:20;;;;;;;14.23;2.65;;;15.30;99.90;;;;;;4909456;29;20032;-93
2022/08/21 03:42:49;;;;;;;10.52;2.65;;;15.40;99.90;;;;;;4909144;29;20028;-93
2022/08/21 03:45:17;;;;;;;10.05;3.00;;;15.40;99.90;;;;;;4909850;29;20052;-92
2022/08/21 03:47:55;;;;;;;14.80;2.47;;;15.40;99.90;;;;;;4926054;29;20036;-92
2022/08/21 03:50:23;;;;;;;18.05;4.15;;;15.40;99.90;;;;;;4910058;29;20048;-93
2022/08/21 03:52:49;;;;;;;17.48;3.08;;;15.40;99.90;;;;;;4910763;29;20055;-94
2022/08/21 03:55:15;;;;;;;16.30;2.50;;;15.40;99.90;;;;;;4912329;29;20028;-93
2022/08/21 03:57:41;;;;;;;11.43;2.60;;;15.40;99.90;;;;;;4917547;29;20038;-93
2022/08/21 04:00:10;;;;;;;12.80;2.72;;;15.40;99.90;;;;;;4927759;29;20044;-86
2022/08/21 04:02:36;;;;;;;14.30;3.23;;;15.40;99.90;;;;;;4927934;29;20013;-88
2022/08/21 04:05:02;;;;;;;19.70;2.90;;;15.40;99.90;;;;;;4927525;29;20047;-87
2022/08/21 04:07:28;;;;;;;12.48;2.90;;;15.40;99.90;;;;;;4927414;29;20016;-88
2022/08/21 04:09:54;;;;;;;14.25;3.10;;;15.40;99.90;;;;;;4926333;29;20035;-89
2022/08/21 04:12:20;;;;;;;17.40;2.80;;;15.40;99.90;;;;;;4926871;29;20040;-86
2022/08/21 04:14:46;;;;;;;21.58;3.45;;;15.40;99.90;;;;;;4926187;29;20099;-92
2022/08/21 04:17:12;;;;;;;15.10;2.63;;;15.40;99.90;;;;;;4921621;29;20032;-92
2022/08/21 04:19:37;;;;;;;16.02;3.17;;;15.40;99.90;;;;;;4920303;29;20070;-93
2022/08/21 04:22:03;;;;;;;11.57;2.85;;;15.40;99.90;;;;;;4916666;29;20035;-92
2022/08/21 04:24:29;;;;;;;19.13;3.08;;;15.30;99.90;;;;;;4915566;29;20051;-92
2022/08/21 04:26:55;;;;;;;12.55;3.10;;;15.20;99.90;;;;;;4915244;29;20039;-92
2022/08/21 04:29:21;;;;;;;12.10;3.35;;;15.30;99.90;;;;;;4914292;29;20032;-93
2022/08/21 04:31:47;;;;;;;12.77;3.08;;;15.30;99.90;;;;;;4914661;29;20024;-94
2022/08/21 04:34:13;;;;;;;7.63;2.47;;;15.30;99.90;;;;;;4930984;29;20024;-94
2022/08/21 04:36:42;;;;;;;11.10;2.70;;;15.20;99.90;;;;;;4915444;29;20056;-94
2022/08/21 04:39:08;;;;;;;11.98;3.20;;;15.30;99.90;;;;;;4915215;29;20040;-93
2022/08/21 04:41:35;;;;;;;12.38;3.05;;;15.20;99.90;;;;;;4931012;29;20541;-94
2022/08/21 04:44:02;;;;;;;13.45;3.80;;;15.20;99.90;;;;;;4916724;29;20055;-94
2022/08/21 04:46:28;;;;;;;8.73;2.80;;;15.20;99.90;;;;;;4935900;29;20073;-93
2022/08/21 04:48:54;;;;;;;9.52;2.92;;;15.20;99.90;;;;;;4919069;29;20064;-94
2022/08/21 04:51:29;;;;;;;13.43;2.90;;;15.20;99.90;;;;;;4913987;29;20032;-93
2022/08/21 04:53:58;;;;;;;8.45;2.50;;;15.20;99.90;;;;;;4912317;29;20103;-92
2022/08/21 04:56:36;;;;;;;16.13;2.80;;;15.30;99.90;;;;;;4910676;29;20036;-92
2022/08/21 04:59:06;;;;;;;11.30;3.03;;;15.30;99.90;;;;;;4910793;29;20032;-95
2022/08/21 05:01:35;;;;;;;10.68;2.70;;;15.30;99.90;;;;;;4910856;29;20039;-95
2022/08/21 05:04:04;;;;;;;10.77;2.90;;;15.30;99.90;;;;;;4910547;29;20036;-96
2022/08/21 05:06:34;;;;;;;10.57;3.45;;;15.30;99.90;;;;;;4910763;29;20020;-96
2022/08/21 05:09:01;;;;;;;16.55;3.33;;;15.30;99.90;;;;;;4928485;29;20047;-94
2022/08/21 05:11:27;;;;;;;13.77;3.08;;;15.30;99.90;;;;;;4926062;29;20032;-96
2022/08/21 05:13:53;;;;;;;11.40;3.05;;;15.30;99.90;;;;;;4925971;29;20051;-95
2022/08/21 05:16:19;;;;;;;12.77;3.05;;;15.30;99.90;;;;;;4933160;29;20565;-95
2022/08/21 05:18:45;;;;;;;14.55;3.72;;;15.30;99.90;;;;;;4932048;29;20130;-95
2022/08/21 05:21:10;;;;;;;20.73;3.30;;;15.20;99.90;;;;;;4930563;29;20020;-96
2022/08/21 05:23:36;;;;;;;16.83;3.95;;;15.20;99.90;;;;;;4929748;29;20035;-94
2022/08/21 05:26:04;;;;;;;12.95;3.20;;;15.20;99.90;;;;;;4908836;29;20032;-95
2022/08/21 05:28:30;;;;;;;13.38;3.40;;;15.20;99.90;;;;;;4922413;29;20032;-96
2022/08/21 05:30:56;;;;;;;20.75;4.18;;;15.20;99.90;;;;;;4926704;29;20063;-94
2022/08/21 05:33:23;;;;;;;9.88;3.50;;;15.10;99.90;;;;;;4926111;29;20052;-95
2022/08/21 05:35:55;;;;;;;9.80;3.60;;;15.10;99.90;;;;;;4925839;29;20052;-95
2022/08/21 05:38:22;;;;;;;12.23;3.47;;;15.10;99.90;;;;;;4909436;29;20043;-95
2022/08/21 05:40:48;;;;;;;9.93;3.72;;;15.10;99.90;;;;;;4909669;29;20039;-95
2022/08/21 05:43:14;;;;;;;13.30;3.22;;;15.10;99.90;;;;;;4909152;29;20493;-95
2022/08/21 05:45:40;;;;;;;11.95;3.28;;;15.10;99.90;;;;;;4928087;29;20028;-96
2022/08/21 05:48:08;;;;;;;17.00;4.07;;;15.10;99.90;;;;;;4937018;29;20095;-94
2022/08/21 05:50:35;;;;;;;12.82;3.70;;;15.10;99.90;;;;;;4921929;29;20055;-95
2022/08/21 05:53:01;;;;;;;11.63;3.47;;;15.10;99.90;;;;;;4920976;29;20028;-96
2022/08/21 05:55:26;;;;;;;12.63;3.38;;;15.10;99.90;;;;;;4921736;29;20056;-93
2022/08/21 05:57:52;;;;;;;11.95;3.28;;;15.10;99.90;;;;;;4940525;29;20020;-95
2022/08/21 06:00:18;;;;;;;9.27;3.30;;;15.10;99.90;;;;;;4923420;29;20040;-96
2022/08/21 06:02:44;;;;;;;9.05;3.40;;;15.00;99.90;;;;;;4918300;29;20035;-96
2022/08/21 06:05:10;;;;;;;11.90;3.90;;;15.00;99.90;;;;;;4921347;29;20036;-95
2022/08/21 06:07:36;;;;;;;9.77;3.47;;;15.00;99.90;;;;;;4898940;29;20063;-94
2022/08/21 06:10:02;;;;;;;10.35;3.10;;;15.10;99.90;;;;;;4897131;29;20072;-94
2022/08/21 06:12:28;;;;;;;11.77;2.92;;;15.00;99.90;;;;;;4910513;29;20035;-95
2022/08/21 06:14:54;;;;;;;14.25;3.33;;;15.10;99.90;;;;;;4906579;29;20028;-95
2022/08/21 06:17:19;;;;;;;9.70;2.90;;;15.00;99.90;;;;;;4906194;29;20036;-96
2022/08/21 06:19:52;;;;;;;15.55;4.03;;;15.00;99.90;;;;;;4923549;29;20039;-95
2022/08/21 06:22:17;;;;;;;11.30;3.03;;;15.00;99.90;;;;;;4921148;29;20062;-95
2022/08/21 06:24:43;;;;;;;14.85;3.42;;;15.10;99.90;;;;;;4922992;29;20032;-95
2022/08/21 06:27:09;;;;;;;19.35;3.88;;;15.10;99.90;;;;;;4905812;29;20024;-96
2022/08/21 06:29:35;;;;;;;14.43;4.40;;;15.10;99.90;;;;;;4921404;29;20028;-95
2022/08/21 06:32:02;;;;;;;11.32;3.63;;;15.10;99.90;;;;;;4902652;29;20051;-92
2022/08/21 06:34:28;;;;;;;16.10;3.75;;;15.10;99.90;;;;;;4926282;29;20053;-91
2022/08/21 06:36:54;;;;;;;13.23;3.90;;;15.10;99.90;;;;;;4926336;29;20032;-94
2022/08/21 06:39:20;;;;;;;16.25;3.78;;;15.20;99.90;;;;;;4922041;29;20339;-94
2022/08/21 06:41:45;;;;;;;9.40;2.63;;;15.20;99.90;;;;;;4902016;29;20027;-95
2022/08/21 06:44:11;;;;;;;10.95;3.45;;;15.20;99.90;;;;;;4903539;29;20028;-93
2022/08/21 06:46:37;;;;;;;13.80;4.57;;;15.30;99.90;;;;;;4905694;29;20058;-92
2022/08/21 06:49:04;;;;;;;8.63;3.22;;;15.30;99.90;;;;;;4921900;29;20136;-92
2022/08/21 06:51:31;;;;;;;12.65;3.75;;;15.30;99.90;;;;;;4905025;29;20051;-93
2022/08/21 06:53:57;;;;;;;16.88;3.92;;;15.40;99.90;;;;;;4921420;29;20024;-95
2022/08/21 06:56:24;;;;;;;13.63;3.67;;;15.40;99.90;;;;;;4922964;29;20047;-93
2022/08/21 06:58:52;;;;;;;13.52;3.20;;;15.40;99.90;;;;;;4917952;29;20040;-95
2022/08/21 07:01:20;;;;;;;13.50;3.33;;;15.50;99.90;;;;;;4918240;29;20024;-93
2022/08/21 07:03:46;;;;;;;16.48;4.32;;;15.50;99.90;;;;;;4929670;29;20036;-94
2022/08/21 07:06:12;;;;;;;10.27;2.63;;;15.50;99.90;;;;;;4919096;29;20035;-95
2022/08/21 07:08:38;;;;;;;9.27;2.92;;;15.50;99.90;;;;;;4933812;29;20034;-95
2022/08/21 07:11:13;;;;;;;9.15;2.75;;;15.50;99.90;;;;;;4931405;29;20048;-92
2022/08/21 07:13:40;;;;;;;17.10;3.15;;;15.50;99.90;;;;;;4913594;29;20056;-95
2022/08/21 07:16:06;;;;;;;11.02;2.70;;;15.60;99.90;;;;;;4927118;29;20039;-93
2022/08/21 07:18:31;;;;;;;10.82;3.08;;;15.60;99.90;;;;;;4915587;29;20100;-93
2022/08/21 07:21:02;;;;;;;10.68;2.60;;;15.60;99.90;;;;;;4918460;29;20024;-90
2022/08/21 07:23:32;;;;;;;9.52;2.55;;;15.60;99.90;;;;;;4902485;29;20045;-88
2022/08/21 07:26:01;;;;;;;12.13;3.00;;;15.60;99.90;;;;;;4935158;29;20056;-95
2022/08/21 07:28:28;;;;;;;13.48;2.50;;;15.60;99.90;;;;;;4923039;29;20167;-94
2022/08/21 07:30:57;;;;;;;14.13;3.10;;;15.70;99.90;;;;;;4910369;29;20040;-95
2022/08/21 07:33:25;;;;;;;10.60;2.40;;;15.60;99.90;;;;;;4925516;29;20035;-94
2022/08/21 07:35:53;;;;;;;9.35;2.60;;;15.60;99.90;;;;;;4912301;29;20032;-95
2022/08/21 07:38:19;;;;;;;14.57;3.17;;;15.70;99.90;;;;;;4928839;29;20036;-95
2022/08/21 07:40:48;;;;;;;9.35;2.58;;;15.70;99.90;;;;;;4939519;29;20036;-87
2022/08/21 07:43:16;;;;;;;13.73;2.80;;;15.70;99.90;;;;;;4924603;29;20060;-91
2022/08/21 07:45:42;;;;;;;10.63;2.80;;;15.80;99.90;;;;;;4943553;29;20032;-91
2022/08/21 07:48:07;;;;;;;14.02;3.63;;;15.80;99.90;;;;;;4943690;29;20062;-92
2022/08/21 07:50:33;;;;;;;13.02;2.65;;;15.90;99.90;;;;;;4942782;28;20051;-88
2022/08/21 07:52:59;;;;;;;9.68;2.70;;;15.90;99.90;;;;;;4938259;28;20012;-90
2022/08/21 07:55:25;;;;;;;16.65;2.80;;;16.00;99.90;;;;;;4923565;29;20028;-94
2022/08/21 07:57:51;;;;;;;9.10;1.90;;;16.10;99.90;;;;;;4919949;29;20028;-93
2022/08/21 08:00:20;;;;;;;15.20;2.30;;;16.10;99.90;;;;;;4932843;29;20063;-95
2022/08/21 08:02:49;;;;;;;10.27;2.28;;;16.30;99.90;;;;;;4923244;29;20115;-95
2022/08/21 08:05:19;;;;;;;5.75;1.70;;;16.50;99.90;;;;;;4920301;29;20031;-95
2022/08/21 08:07:45;;;;;;;10.48;1.90;;;16.70;99.90;;;;;;4909622;29;20028;-93
2022/08/21 08:10:12;;;;;;;10.98;2.72;;;16.80;99.90;;;;;;4937915;29;20044;-94
2022/08/21 08:12:41;;;;;;;6.97;2.05;;;16.80;99.90;;;;;;4919961;29;20036;-94
2022/08/21 08:15:13;;;;;;;10.38;2.00;;;16.90;99.90;;;;;;4932320;29;20032;-92
2022/08/21 08:17:39;;;;;;;7.72;1.27;;;17.00;99.90;;;;;;4917998;29;20091;-93
2022/08/21 08:20:07;;;;;;;11.02;1.90;;;17.00;99.90;;;;;;4916102;29;20040;-92
2022/08/21 08:22:34;;;;;;;11.02;1.73;;;17.00;99.90;;;;;;4924338;29;20033;-92
2022/08/21 08:25:01;;;;;;;7.75;1.95;;;17.00;99.90;;;;;;4922402;29;20072;-93
2022/08/21 08:27:27;;;;;;;7.65;1.75;;;17.10;99.90;;;;;;4905673;29;20088;-91
2022/08/21 08:29:55;;;;;;;14.68;2.15;;;17.20;99.90;;;;;;4923059;29;20035;-92
2022/08/21 08:32:21;;;;;;;13.60;2.28;;;17.30;99.90;;;;;;4905680;29;20119;-91
2022/08/21 08:34:48;;;;;;;10.52;2.08;;;17.40;99.90;;;;;;4906048;29;20047;-92
2022/08/21 08:37:15;;;;;;;9.95;2.05;;;17.50;99.90;;;;;;4924704;29;20057;-92
2022/08/21 08:39:40;;;;;;;12.05;2.55;;;17.60;99.90;;;;;;4910068;29;20040;-93
2022/08/21 08:42:25;;;;;;;13.32;1.85;;;17.60;99.90;;;;;;4928917;29;20020;-93
2022/08/21 08:44:58;;;;;;;12.27;2.20;;;17.80;99.90;;;;;;4921490;29;20065;-92
2022/08/21 08:47:26;;;;;;;5.80;1.63;;;17.80;99.90;;;;;;4903766;29;20020;-93
2022/08/21 08:50:07;;;;;;;5.05;1.40;;;17.90;99.90;;;;;;4902369;29;20498;-92
2022/08/21 08:52:57;;;;;;;8.23;1.90;;;18.00;99.80;;;;;;4921052;29;20497;-92
2022/08/21 08:55:39;;;;;;;10.15;1.83;;;17.90;98.60;;;;;;4919773;29;20036;-92
2022/08/21 08:58:24;;;;;;;12.20;1.75;;;17.90;98.30;;;;;;4921227;29;20038;-92
2022/08/21 09:00:56;;;;;;;13.30;1.85;;;18.00;98.00;;;;;;4903006;29;20043;-92
2022/08/21 09:03:28;;;;;;;11.40;1.90;;;18.10;97.70;;;;;;4917536;29;20115;-94
2022/08/21 09:06:16;;;;;;;13.15;1.83;;;18.20;97.80;;;;;;4917539;29;20047;-94
2022/08/21 09:09:08;;;;;;;6.68;1.75;;;18.30;97.10;;;;;;4918771;29;20067;-91
2022/08/21 09:11:55;;;;;;;7.10;1.52;;;18.20;96.90;;;;;;4919415;29;20077;-93
2022/08/21 09:14:47;;;;;;;7.88;1.65;;;18.30;96.90;;;;;;4911492;29;20123;-93
2022/08/21 09:17:19;;;;;;;11.48;1.90;;;18.40;96.50;;;;;;4913017;29;20103;-93
2022/08/21 09:20:06;;;;;;;12.27;1.92;;;18.40;95.90;;;;;;4922990;29;20079;-92
2022/08/21 09:23:05;;;;;;;12.88;2.00;;;18.30;95.20;;;;;;4925150;29;20032;-94
2022/08/21 09:25:39;;;;;;;6.68;1.52;;;18.30;94.60;;;;;;4916893;29;20462;-92
2022/08/21 09:28:08;;;;;;;11.05;2.78;;;18.30;94.60;;;;;;4901075;29;20035;-93
2022/08/21 09:30:34;;;;;;;9.95;1.92;;;18.30;94.20;;;;;;4920368;29;20024;-92
2022/08/21 09:33:00;;;;;;;7.57;1.63;;;18.30;94.20;;;;;;4922492;29;20028;-92
2022/08/21 09:35:26;;;;;;;10.30;1.95;;;18.40;94.10;;;;;;4922945;29;20084;-93
2022/08/21 09:37:57;;;;;;;6.88;1.75;;;18.50;93.90;;;;;;4920517;29;20440;-92
2022/08/21 09:40:39;;;;;;;8.10;1.65;;;18.60;93.80;;;;;;4903332;29;20042;-93
2022/08/21 09:43:13;;;;;;;12.38;1.52;;;18.70;93.60;;;;;;4919570;29;20039;-92
2022/08/21 09:45:41;;;;;;;7.68;1.90;;;18.80;93.00;;;;;;4903219;29;20028;-93
2022/08/21 09:48:21;;;;;;;7.68;1.50;;;18.90;92.10;;;;;;4918980;29;20111;-95
2022/08/21 09:50:48;;;;;;;7.50;1.15;;;19.10;91.50;;;;;;4918485;29;20093;-93
2022/08/21 09:53:28;;;;;;;13.30;1.98;;;19.20;90.40;;;;;;4917574;29;20426;-94
2022/08/21 09:58:45;;;;;;;5.78;1.38;;;19.40;88.70;;;;;;4921814;29;20054;-92
2022/08/21 10:01:23;;;;;;;9.93;2.08;;;19.60;88.00;;;;;;4913453;29;20060;-91
2022/08/21 10:04:03;;;;;;;8.75;2.00;;;19.70;86.90;;;;;;4925603;29;20024;-89
2022/08/21 10:06:29;;;;;;;8.70;1.88;;;19.70;86.70;;;;;;4901564;29;20340;-89
2022/08/21 10:09:10;;;;;;;14.07;2.38;;;19.80;86.40;;;;;;4901697;29;20032;-89
2022/08/21 10:11:36;;;;;;;7.70;1.60;;;19.80;85.90;;;;;;4917518;29;20087;-90
2022/08/21 10:14:16;;;;;;;6.65;1.80;;;19.80;85.80;;;;;;4901851;29;20036;-91
2022/08/21 10:16:52;;;;;;;4.53;1.30;;;19.80;85.30;;;;;;4901832;29;20055;-90
2022/08/21 10:19:48;;;;;;;5.90;1.58;;;19.80;84.80;;;;;;4901130;29;20490;-90
2022/08/21 10:22:38;;;;;;;4.15;1.20;;;19.80;84.20;;;;;;4900166;29;20032;-89
2022/08/21 10:25:31;;;;;;;10.65;2.08;;;20.00;83.90;;;;;;4917115;29;20036;-89
2022/08/21 10:28:16;;;;;;;8.13;2.05;;;20.20;83.40;;;;;;4903790;29;20040;-90
2022/08/21 10:30:51;;;;;;;9.65;2.15;;;20.30;83.20;;;;;;4905311;29;20036;-90
2022/08/21 10:33:29;;;;;;;6.15;1.90;;;20.60;83.40;;;;;;4900528;29;20043;-90
2022/08/21 10:36:16;;;;;;;10.43;3.05;;;20.70;82.20;;;;;;4918485;29;20075;-90
2022/08/21 10:38:56;;;;;;;8.45;1.88;;;21.00;81.60;;;;;;4901414;29;20039;-88
2022/08/21 10:41:22;;;;;;;;;;;21.20;80.00;;;;;;4901964;29;20040;-90
2022/08/21 10:44:07;;;;;;;6.05;1.50;;;21.30;79.50;;;;;;4902502;29;19922;-90
2022/08/21 10:46:44;;;;;;;6.95;1.73;;;21.40;78.50;;;;;;4901715;29;20119;-89
2022/08/21 10:49:25;;;;;;;9.23;1.58;;;21.60;78.00;;;;;;4901664;29;20187;-90
2022/08/21 10:52:01;;;;;;;10.63;1.77;;;21.70;77.40;;;;;;4903015;29;20074;-89
2022/08/21 10:54:36;;;;;;;5.85;1.60;;;21.80;76.40;;;;;;4904569;29;20048;-89
2022/08/21 10:57:09;;;;;;;8.93;1.60;;;21.80;76.20;;;;;;4917868;29;20043;-89
2022/08/21 11:00:04;;;;;;;6.68;1.88;;;21.90;75.80;;;;;;4919687;29;20047;-90
2022/08/21 11:02:42;;;;;;;8.30;1.65;;;21.90;75.30;;;;;;4929555;29;20028;-89
2022/08/21 11:05:25;;;;;;;12.15;2.38;;;21.70;74.80;;;;;;4909699;29;20035;-89
2022/08/21 11:08:31;;;;;;;6.30;1.70;;;21.50;75.00;;;;;;4903397;29;20028;-90
2022/08/21 11:11:08;;;;;;;9.23;2.95;;;21.30;75.60;;;;;;4862351;29;20096;-89
2022/08/21 11:13:50;;;;;;;8.07;1.88;;;21.10;75.90;;;;;;4860988;29;20034;-87
2022/08/21 11:16:35;;;;;;;10.45;1.85;;;20.90;76.30;;;;;;4861403;29;20066;-90
2022/08/21 11:19:28;;;;;;;7.65;1.40;;;20.80;76.80;;;;;;4863631;29;20053;-89
2022/08/21 11:22:02;;;;;;;7.05;1.60;;;20.70;77.30;;;;;;4864875;29;20092;-89
2022/08/21 11:24:51;;;;;;;8.02;1.73;;;20.80;77.70;;;;;;4864371;29;20116;-90
2022/08/21 11:27:32;;;;;;;10.73;2.30;;;20.80;77.60;;;;;;4809769;29;20113;-88
2022/08/21 11:30:00;;;;;;;7.55;2.17;;;20.90;77.90;;;;;;4810465;29;20050;-89
2022/08/21 11:32:36;;;;;;;9.32;1.90;;;21.20;77.70;;;;;;4812184;29;20046;-87
2022/08/21 11:35:05;;;;;;;7.90;2.00;;;21.50;76.80;;;;;;4815706;29;20053;-88
2022/08/21 11:37:52;;;;;;;13.52;2.00;;;21.80;75.70;;;;;;4817854;29;20047;-88
2022/08/21 11:40:36;;;;;;;7.90;1.65;;;22.10;74.70;;;;;;4819788;29;20163;-88
2022/08/21 11:43:27;;;;;;;9.38;2.03;;;22.20;73.90;;;;;;4819051;29;20212;-90
2022/08/21 11:45:56;;;;;;;5.63;1.50;;;22.50;73.00;;;;;;4865762;29;20057;-88
2022/08/21 11:48:24;;;;;;;8.38;1.90;;;22.50;72.60;;;;;;4874986;29;20037;-89
2022/08/21 11:50:52;;;;;;;5.90;1.73;;;22.60;73.10;;;;;;4874308;29;20101;-89
2022/08/21 11:53:17;;;;;;;10.75;2.05;;;22.50;71.70;;;;;;4876092;29;20127;-88
2022/08/21 11:55:48;;;;;;;8.27;1.77;;;22.40;71.60;;;;;;4856979;29;20041;-88
2022/08/21 11:58:27;;;;;;;6.93;1.67;;;22.30;71.70;;;;;;4871343;29;20041;-89
2022/08/21 12:00:58;;;;;;;8.68;1.75;;;22.20;71.60;;;;;;4852041;29;20057;-90
2022/08/21 12:03:27;;;;;;;8.10;1.80;;;22.10;71.80;;;;;;4861348;29;20088;-88
2022/08/21 12:05:58;;;;;;;4.70;1.42;;;21.90;72.00;;;;;;4906220;29;20478;-88
2022/08/21 12:08:28;;;;;;;7.32;1.60;;;21.80;72.20;;;;;;4906507;29;20047;-89
2022/08/21 12:11:00;;;;;;;;;;;21.60;72.40;;;;;;4923435;29;20028;-89
2022/08/21 12:13:28;;;;;;;3.55;1.52;;;21.50;72.80;;;;;;4905904;29;20428;-90
2022/08/21 12:16:10;;;;;;;6.18;1.70;;;21.40;72.90;;;;;;4905422;29;20031;-88
2022/08/21 12:18:37;;;;;;;10.30;2.10;;;21.30;73.20;;;;;;4904743;29;20047;-90
2022/08/21 12:21:25;;;;;;;6.93;1.85;;;21.40;73.40;;;;;;4905008;29;20028;-91
2022/08/21 12:24:12;;;;;;;4.38;1.50;;;21.50;73.60;;;;;;4904987;29;20028;-90
2022/08/21 12:27:00;;;;;;;7.38;1.60;;;21.70;73.60;;;;;;4905343;29;20509;-89
2022/08/21 12:29:32;;;;;;;9.52;1.75;;;22.00;72.90;;;;;;4903433;29;20035;-90
2022/08/21 12:32:10;;;;;;;8.55;1.75;;;22.20;72.50;;;;;;4904062;29;20060;-90
2022/08/21 12:34:51;;;;;;;4.03;1.67;;;22.40;72.10;;;;;;4903897;29;20032;-89
2022/08/21 12:37:39;;;;;;;7.72;1.40;;;22.70;71.50;;;;;;4904003;29;20032;-90
2022/08/21 12:40:34;;;;;;;5.40;1.25;;;22.70;70.80;;;;;;4904154;29;20501;-90
2022/08/21 12:43:02;;;;;;;9.02;2.00;;;22.90;70.70;;;;;;4896579;29;20103;-90
2022/08/21 12:45:41;;;;;;;6.18;2.25;;;23.10;70.10;;;;;;4903679;29;20501;-88
2022/08/21 12:48:23;;;;;;;6.97;1.58;;;23.20;69.60;;;;;;4903964;29;20028;-88
2022/08/21 12:51:14;;;;;;;5.40;2.05;;;23.40;69.00;;;;;;4921013;29;20036;-89
2022/08/21 12:53:45;;;;;;;;;;;23.60;68.40;;;;;;4903839;29;20024;-88
2022/08/21 12:56:14;;;;;;;8.15;1.88;;;23.90;68.10;;;;;;4905264;29;19911;-90
2022/08/21 12:58:46;;;;;;;4.75;1.30;;;24.10;67.00;;;;;;4919980;29;20482;-89
2022/08/21 13:01:25;;;;;;;6.03;1.45;;;24.20;65.50;;;;;;4903713;29;20047;-90